createdAt,value
2019-02-10T00:01:16.935Z,101053.80
2019-02-10T00:03:48.258Z,101059.02
2019-02-10T00:06:24.462Z,101054.72
2019-02-10T00:08:51.456Z,101060.83
2019-02-10T00:11:23.328Z,101061.02
2019-02-10T00:13:54.181Z,101063.89
2019-02-10T00:16:24.952Z,101066.36
2019-02-10T00:18:55.618Z,101074.31
2019-02-10T00:21:26.380Z,101078.54
2019-02-10T00:23:57.168Z,101070.21
2019-02-10T00:26:30.445Z,101072.75
2019-02-10T00:29:01.955Z,101071.57
2019-02-10T00:31:32.680Z,101075.43
2019-02-10T00:34:03.900Z,101077.83
2019-02-10T00:36:34.954Z,101076.83
2019-02-10T00:39:09.790Z,101073.08
2019-02-10T00:41:40.583Z,101074.72
2019-02-10T00:44:11.668Z,101071.75
2019-02-10T00:46:42.583Z,101071.68
2019-02-10T00:49:13.682Z,101065.98
2019-02-10T00:51:44.310Z,101076.15
2019-02-10T00:54:15.232Z,101074.33
2019-02-10T00:56:47.174Z,101073.35
2019-02-10T00:59:17.846Z,101064.13
2019-02-10T01:01:48.529Z,101056.58
2019-02-10T01:04:19.179Z,101057.05
2019-02-10T01:06:50.089Z,101054.91
2019-02-10T01:09:20.710Z,101055.01
2019-02-10T01:11:51.392Z,101054.94
2019-02-10T01:14:22.398Z,101053.18
2019-02-10T01:16:53.060Z,101051.00
2019-02-10T01:19:24.819Z,101042.98
2019-02-10T01:21:55.464Z,101043.42
2019-02-10T01:24:26.094Z,101039.41
2019-02-10T01:26:56.825Z,101036.77
2019-02-10T01:29:27.569Z,101024.63
2019-02-10T01:31:58.979Z,101019.13
2019-02-10T01:34:29.588Z,101013.15
2019-02-10T01:37:00.561Z,101020.41
2019-02-10T01:39:31.365Z,101017.91
2019-02-10T01:42:02.695Z,101024.73
2019-02-10T01:44:33.617Z,101024.31
2019-02-10T01:47:04.398Z,101016.30
2019-02-10T01:49:35.315Z,101017.13
2019-02-10T01:52:07.379Z,101009.79
2019-02-10T01:54:38.009Z,101001.78
2019-02-10T01:57:11.352Z,100998.39
2019-02-10T01:59:42.277Z,100995.27
2019-02-10T02:02:13.187Z,100990.77
2019-02-10T02:04:44.268Z,100978.91
2019-02-10T02:07:16.333Z,100980.30
2019-02-10T02:09:48.100Z,100984.38
2019-02-10T02:12:18.876Z,100986.74
2019-02-10T02:14:49.639Z,100984.77
2019-02-10T02:17:20.323Z,100980.63
2019-02-10T02:19:50.839Z,100976.58
2019-02-10T02:22:21.461Z,100969.95
2019-02-10T02:24:52.242Z,100967.27
2019-02-10T02:27:23.559Z,100963.38
2019-02-10T02:29:54.299Z,100957.25
2019-02-10T02:32:26.397Z,100969.42
2019-02-10T02:34:57.086Z,100969.05
2019-02-10T02:37:28.409Z,100974.22
2019-02-10T02:40:06.075Z,100980.16
2019-02-10T02:42:37.038Z,100982.83
2019-02-10T02:45:08.997Z,100986.05
2019-02-10T02:47:40.351Z,100997.38
2019-02-10T02:50:12.309Z,101002.75
2019-02-10T02:52:43.322Z,101000.58
2019-02-10T02:55:14.096Z,100999.20
2019-02-10T02:57:47.622Z,101004.61
2019-02-10T03:00:18.314Z,101011.38
2019-02-10T03:02:49.424Z,101015.13
2019-02-10T03:05:20.486Z,101007.34
2019-02-10T03:07:51.037Z,100991.94
2019-02-10T03:10:21.589Z,100995.97
2019-02-10T03:12:52.958Z,100999.59
2019-02-10T03:15:23.714Z,100995.04
2019-02-10T03:17:54.730Z,100989.27
2019-02-10T03:20:25.440Z,100993.70
2019-02-10T03:22:56.507Z,100990.34
2019-02-10T03:25:27.903Z,101000.73
2019-02-10T03:27:58.739Z,100994.42
2019-02-10T03:30:31.099Z,100994.94
2019-02-10T03:33:02.259Z,100995.83
2019-02-10T03:35:33.327Z,101004.17
2019-02-10T03:38:03.958Z,101001.68
2019-02-10T03:40:34.846Z,101003.85
2019-02-10T03:43:05.919Z,101010.76
2019-02-10T03:45:37.065Z,101013.86
2019-02-10T03:48:07.604Z,101017.74
2019-02-10T03:50:38.495Z,101013.03
2019-02-10T03:53:09.217Z,101011.11
2019-02-10T03:55:40.047Z,101011.48
2019-02-10T03:58:12.492Z,101019.98
2019-02-10T04:00:43.368Z,101020.84
2019-02-10T04:03:14.071Z,101027.09
2019-02-10T04:05:45.529Z,101025.33
2019-02-10T04:08:16.335Z,101028.73
2019-02-10T04:10:48.549Z,101031.70
2019-02-10T04:13:19.283Z,101026.67
2019-02-10T04:15:50.141Z,101033.09
2019-02-10T04:18:21.180Z,101044.61
2019-02-10T04:20:51.619Z,101037.78
2019-02-10T04:23:22.461Z,101036.87
2019-02-10T04:25:56.469Z,101030.59
2019-02-10T04:28:27.421Z,101035.29
2019-02-10T04:30:58.364Z,101034.06
2019-02-10T04:33:29.125Z,101037.49
2019-02-10T04:36:00.216Z,101039.69
2019-02-10T04:38:31.276Z,101038.88
2019-02-10T04:41:02.441Z,101038.72
2019-02-10T04:43:33.429Z,101032.30
2019-02-10T04:46:04.324Z,101031.12
2019-02-10T04:48:35.373Z,101039.60
2019-02-10T04:51:07.914Z,101042.55
2019-02-10T04:53:38.845Z,101043.34
2019-02-10T04:56:20.030Z,101040.33
2019-02-10T04:58:51.888Z,101045.09
2019-02-10T05:01:22.521Z,101052.39
2019-02-10T05:03:53.614Z,101058.71
2019-02-10T05:06:25.124Z,101051.36
2019-02-10T05:08:56.292Z,101051.67
2019-02-10T05:11:27.315Z,101043.86
2019-02-10T05:13:57.967Z,101042.03
2019-02-10T05:16:28.792Z,101054.20
2019-02-10T05:18:59.716Z,101062.45
2019-02-10T05:21:30.767Z,101063.38
2019-02-10T05:24:03.580Z,101060.09
2019-02-10T05:26:34.223Z,101064.13
2019-02-10T05:29:06.179Z,101080.82
2019-02-10T05:31:37.160Z,101082.02
2019-02-10T05:34:09.342Z,101069.63
2019-02-10T05:36:39.935Z,101065.74
2019-02-10T05:39:10.537Z,101068.16
2019-02-10T05:41:41.291Z,101074.84
2019-02-10T05:44:12.031Z,101065.62
2019-02-10T05:46:42.584Z,101083.34
2019-02-10T05:49:13.248Z,101080.91
2019-02-10T05:51:43.917Z,101089.92
2019-02-10T05:54:14.522Z,101087.16
2019-02-10T05:56:45.509Z,101096.31
2019-02-10T05:59:17.624Z,101085.84
2019-02-10T06:02:27.682Z,101083.61
2019-02-10T06:05:00.651Z,101090.46
2019-02-10T06:07:32.865Z,101087.77
2019-02-10T06:10:04.074Z,101083.92
2019-02-10T06:12:35.382Z,101078.28
2019-02-10T06:15:06.746Z,101084.20
2019-02-10T06:17:37.761Z,101093.15
2019-02-10T06:20:09.077Z,101089.32
2019-02-10T06:22:39.889Z,101087.00
2019-02-10T06:25:10.902Z,101086.14
2019-02-10T06:27:41.637Z,101089.63
2019-02-10T06:30:12.789Z,101086.03
2019-02-10T06:32:43.338Z,101083.74
2019-02-10T06:35:14.408Z,101085.95
2019-02-10T06:37:45.664Z,101092.58
2019-02-10T06:40:16.605Z,101092.25
2019-02-10T06:42:47.797Z,101093.69
2019-02-10T06:45:18.419Z,101089.69
2019-02-10T06:47:49.595Z,101094.52
2019-02-10T06:50:20.206Z,101095.53
2019-02-10T06:52:50.827Z,101091.75
2019-02-10T06:55:22.982Z,101093.67
2019-02-10T06:57:53.463Z,101090.02
2019-02-10T07:00:42.444Z,101082.84
2019-02-10T07:03:46.156Z,101084.44
2019-02-10T07:06:17.110Z,101082.66
2019-02-10T07:08:48.316Z,101076.65
2019-02-10T07:11:19.421Z,101084.30
2019-02-10T07:13:52.720Z,101082.01
2019-02-10T07:17:00.379Z,101081.42
2019-02-10T07:20:13.588Z,101087.20
2019-02-10T07:23:22.028Z,101081.27
2019-02-10T07:26:01.469Z,101082.95
2019-02-10T07:29:08.665Z,101082.46
2019-02-10T07:31:54.059Z,101082.75
2019-02-10T07:35:09.746Z,101081.45
2019-02-10T07:38:07.801Z,101084.46
2019-02-10T07:41:40.674Z,101089.97
2019-02-10T07:44:45.880Z,101090.83
2019-02-10T07:48:15.654Z,101094.40
2019-02-10T07:51:39.337Z,101090.14
2019-02-10T07:54:31.028Z,101095.39
2019-02-10T07:57:48.407Z,101095.87
2019-02-10T08:00:54.827Z,101100.16
2019-02-10T08:04:00.622Z,101090.29
2019-02-10T08:06:56.816Z,101092.86
2019-02-10T08:09:39.206Z,101093.84
2019-02-10T08:12:55.933Z,101089.09
2019-02-10T08:16:10.948Z,101087.38
2019-02-10T08:19:15.880Z,101093.18
2019-02-10T08:22:36.291Z,101097.12
2019-02-10T08:25:40.717Z,101094.61
2019-02-10T08:28:25.115Z,101095.94
2019-02-10T08:31:41.167Z,101096.03
2019-02-10T08:34:28.209Z,101102.39
2019-02-10T08:37:36.675Z,101101.85
2019-02-10T08:40:53.648Z,101097.63
2019-02-10T08:43:53.553Z,101098.29
2019-02-10T08:46:56.115Z,101095.19
2019-02-10T08:50:04.000Z,101098.50
2019-02-10T08:52:51.773Z,101093.31
2019-02-10T08:55:17.799Z,101094.77
2019-02-10T08:57:48.525Z,101095.61
2019-02-10T09:00:20.219Z,101089.53
2019-02-10T09:02:51.657Z,101091.42
2019-02-10T09:05:22.427Z,101091.20
2019-02-10T09:07:53.157Z,101087.81
2019-02-10T09:10:24.074Z,101089.50
2019-02-10T09:12:54.978Z,101092.04
2019-02-10T09:15:27.484Z,101090.34
2019-02-10T09:17:58.119Z,101088.34
2019-02-10T09:20:28.929Z,101085.70
2019-02-10T09:22:59.897Z,101083.22
2019-02-10T09:25:30.798Z,101088.75
2019-02-10T09:28:01.805Z,101089.86
2019-02-10T09:30:32.752Z,101084.38
2019-02-10T09:33:03.767Z,101078.68
2019-02-10T09:35:34.608Z,101084.20
2019-02-10T09:38:05.552Z,101083.69
2019-02-10T09:40:36.486Z,101089.20
2019-02-10T09:43:07.515Z,101087.91
2019-02-10T09:45:38.296Z,101087.11
2019-02-10T09:48:10.031Z,101081.83
2019-02-10T09:50:41.080Z,101084.46
2019-02-10T09:53:12.401Z,101079.72
2019-02-10T09:55:44.117Z,101084.20
2019-02-10T09:58:15.219Z,101075.70
2019-02-10T10:00:45.942Z,101070.56
2019-02-10T10:03:18.108Z,101078.63
2019-02-10T10:05:48.775Z,101064.48
2019-02-10T10:08:21.184Z,101067.39
2019-02-10T10:10:53.366Z,101060.07
2019-02-10T10:13:24.089Z,101056.92
2019-02-10T10:15:54.752Z,101053.37
2019-02-10T10:18:25.404Z,101050.28
2019-02-10T10:21:01.511Z,101035.63
2019-02-10T10:23:32.426Z,101030.95
2019-02-10T10:26:03.432Z,101025.80
2019-02-10T10:28:34.684Z,101025.09
2019-02-10T10:31:07.308Z,101018.23
2019-02-10T10:33:38.076Z,101016.70
2019-02-10T10:36:10.689Z,101013.77
2019-02-10T10:38:43.155Z,101010.61
2019-02-10T10:41:13.894Z,101011.45
2019-02-10T10:43:44.850Z,101010.52
2019-02-10T10:46:15.975Z,100999.87
2019-02-10T10:48:48.395Z,100996.21
2019-02-10T10:51:19.195Z,100988.97
2019-02-10T10:53:49.774Z,100990.27
2019-02-10T10:56:21.651Z,100982.95
2019-02-10T10:58:52.760Z,100982.85
2019-02-10T11:01:25.289Z,100971.86
2019-02-10T11:03:58.486Z,100969.06
2019-02-10T11:06:30.094Z,100967.95
2019-02-10T11:09:02.090Z,100965.84
2019-02-10T11:11:33.758Z,100969.25
2019-02-10T11:14:04.865Z,100963.61
2019-02-10T11:16:38.668Z,100958.08
2019-02-10T11:19:09.860Z,100952.31
2019-02-10T11:21:41.007Z,100949.16
2019-02-10T11:24:11.693Z,100946.67
2019-02-10T11:26:42.792Z,100936.86
2019-02-10T11:29:14.784Z,100944.40
2019-02-10T11:31:45.473Z,100938.16
2019-02-10T11:34:16.542Z,100941.59
2019-02-10T11:36:46.840Z,100937.76
2019-02-10T11:39:17.762Z,100936.53
2019-02-10T11:41:49.926Z,100939.56
2019-02-10T11:44:20.846Z,100929.66
2019-02-10T11:46:53.642Z,100932.06
2019-02-10T11:49:27.899Z,100928.49
2019-02-10T11:51:58.959Z,100932.28
2019-02-10T11:54:29.773Z,100934.66
2019-02-10T11:57:01.206Z,100943.05
2019-02-10T11:59:32.542Z,100945.59
2019-02-10T12:02:06.241Z,100941.70
2019-02-10T12:04:38.192Z,100942.48
2019-02-10T12:07:09.911Z,100941.25
2019-02-10T12:09:41.481Z,100936.20
2019-02-10T12:12:12.830Z,100931.52
2019-02-10T12:14:43.895Z,100931.59
2019-02-10T12:17:15.166Z,100940.09
2019-02-10T12:19:45.804Z,100938.22
2019-02-10T12:22:16.961Z,100940.47
2019-02-10T12:24:49.833Z,100929.06
2019-02-10T12:27:20.982Z,100928.63
2019-02-10T12:29:52.322Z,100925.30
2019-02-10T12:32:23.724Z,100932.47
2019-02-10T12:34:54.167Z,100933.74
2019-02-10T12:37:32.193Z,100927.61
2019-02-10T12:39:59.837Z,100932.20
2019-02-10T12:42:31.729Z,100929.77
2019-02-10T12:45:02.977Z,100931.63
2019-02-10T12:47:33.349Z,100931.77
2019-02-10T12:50:05.056Z,100901.57
2019-02-10T12:52:35.370Z,100926.95
2019-02-10T12:55:06.215Z,100928.03
2019-02-10T12:57:37.055Z,100928.82
2019-02-10T13:00:09.846Z,100930.72
2019-02-10T13:02:40.470Z,100926.70
2019-02-10T13:05:12.846Z,100925.37
2019-02-10T13:07:44.411Z,100931.22
2019-02-10T13:10:17.410Z,100932.29
2019-02-10T13:12:47.885Z,100930.59
2019-02-10T13:15:19.679Z,100924.55
2019-02-10T13:17:50.992Z,100920.44
2019-02-10T13:20:19.102Z,100915.83
2019-02-10T13:22:50.750Z,100917.77
2019-02-10T13:25:27.639Z,100917.30
2019-02-10T13:27:58.767Z,100930.27
2019-02-10T13:30:30.483Z,100932.64
2019-02-10T13:33:02.168Z,100932.14
2019-02-10T13:35:35.644Z,100924.88
2019-02-10T13:38:07.952Z,100924.51
2019-02-10T13:40:35.999Z,100928.70
2019-02-10T13:43:05.238Z,100920.66
2019-02-10T13:45:36.859Z,100917.12
2019-02-10T13:48:08.147Z,100914.75
2019-02-10T13:50:39.339Z,100917.88
2019-02-10T13:53:10.597Z,100912.18
2019-02-10T13:55:41.292Z,100915.83
2019-02-10T13:58:12.127Z,100918.06
2019-02-10T14:00:43.229Z,100915.47
2019-02-10T14:03:13.805Z,100909.62
2019-02-10T14:05:46.144Z,100908.75
2019-02-10T14:08:18.226Z,100914.56
2019-02-10T14:10:48.598Z,100914.44
2019-02-10T14:13:19.453Z,100914.78
2019-02-10T14:15:50.775Z,100911.69
2019-02-10T14:18:21.708Z,100912.45
2019-02-10T14:20:52.842Z,100912.59
2019-02-10T14:23:24.085Z,100907.27
2019-02-10T14:25:55.056Z,100903.81
2019-02-10T14:28:27.405Z,100896.73
2019-02-10T14:30:58.385Z,100895.19
2019-02-10T14:33:38.531Z,100900.25
2019-02-10T14:36:05.288Z,100904.06
2019-02-10T14:38:36.546Z,100897.97
2019-02-10T14:41:07.896Z,100894.94
2019-02-10T14:43:39.412Z,100900.34
2019-02-10T14:46:11.406Z,100897.27
2019-02-10T14:48:42.386Z,100896.10
2019-02-10T14:51:14.132Z,100892.47
2019-02-10T14:53:44.866Z,100895.85
2019-02-10T14:56:15.876Z,100896.77
2019-02-10T14:58:47.175Z,100892.66
2019-02-10T15:03:49.010Z,100890.59
2019-02-10T15:06:22.854Z,100892.92
2019-02-10T15:08:53.580Z,100890.90
2019-02-10T15:11:26.361Z,100892.70
2019-02-10T15:13:57.881Z,100895.97
2019-02-10T15:16:31.164Z,100894.30
2019-02-10T15:21:33.681Z,100891.21
2019-02-10T15:24:05.412Z,100890.59
2019-02-10T15:26:37.936Z,100886.53
2019-02-10T15:29:10.073Z,100894.20
2019-02-10T15:31:40.695Z,100886.08
2019-02-10T15:34:12.047Z,100893.08
2019-02-10T15:36:43.166Z,100884.14
2019-02-10T15:39:15.983Z,100884.22
2019-02-10T15:41:47.201Z,100887.83
2019-02-10T15:44:18.474Z,100887.64
2019-02-10T15:46:49.582Z,100893.37
2019-02-10T15:49:40.379Z,100891.86
2019-02-10T15:52:12.619Z,100887.27
2019-02-10T15:54:43.783Z,100891.88
2019-02-10T15:57:14.977Z,100893.83
2019-02-10T15:59:48.026Z,100887.14
2019-02-10T16:02:19.303Z,100887.73
2019-02-10T16:04:50.252Z,100891.89
2019-02-10T16:07:22.548Z,100890.01
2019-02-10T16:09:54.255Z,100889.36
2019-02-10T16:12:25.935Z,100886.55
2019-02-10T16:14:56.577Z,100896.08
2019-02-10T16:17:28.003Z,100893.12
2019-02-10T16:19:58.896Z,100895.01
2019-02-10T16:22:29.757Z,100895.53
2019-02-10T16:25:01.577Z,100895.65
2019-02-10T16:27:32.133Z,100895.65
2019-02-10T16:30:03.513Z,100897.46
2019-02-10T16:32:34.566Z,100897.14
2019-02-10T16:35:05.353Z,100894.61
2019-02-10T16:37:36.055Z,100888.25
2019-02-10T16:40:08.057Z,100894.00
2019-02-10T16:42:40.584Z,100891.09
2019-02-10T16:45:11.849Z,100895.88
2019-02-10T16:47:42.631Z,100890.81
2019-02-10T16:50:13.937Z,100901.52
2019-02-10T16:52:44.810Z,100892.54
2019-02-10T16:55:15.803Z,100894.78
2019-02-10T16:57:46.482Z,100894.02
2019-02-10T17:00:16.972Z,100896.66
2019-02-10T17:02:47.660Z,100897.13
2019-02-10T17:05:18.519Z,100904.61
2019-02-10T17:07:51.822Z,100903.50
2019-02-10T17:10:22.554Z,100902.22
2019-02-10T17:12:53.309Z,100901.31
2019-02-10T17:15:23.997Z,100901.31
2019-02-10T17:17:54.758Z,100896.77
2019-02-10T17:20:27.333Z,100893.32
2019-02-10T17:22:58.311Z,100891.98
2019-02-10T17:25:29.857Z,100892.03
2019-02-10T17:28:02.053Z,100896.34
2019-02-10T17:30:32.769Z,100899.88
2019-02-10T17:33:04.383Z,100894.52
2019-02-10T17:35:35.134Z,100893.23
2019-02-10T17:38:06.403Z,100887.60
2019-02-10T17:40:40.162Z,100893.33
2019-02-10T17:43:11.713Z,100887.79
2019-02-10T17:45:42.572Z,100884.10
2019-02-10T17:48:13.309Z,100888.41
2019-02-10T17:50:44.080Z,100879.70
2019-02-10T17:53:14.755Z,100880.09
2019-02-10T17:55:45.636Z,100887.79
2019-02-10T17:58:16.387Z,100883.02
2019-02-10T18:00:49.073Z,100878.62
2019-02-10T18:03:21.278Z,100880.28
2019-02-10T18:05:52.101Z,100875.46
2019-02-10T18:08:23.722Z,100874.79
2019-02-10T18:10:54.859Z,100867.47
2019-02-10T18:13:25.751Z,100871.09
2019-02-10T18:16:19.550Z,100877.45
2019-02-10T18:19:01.994Z,100877.41
2019-02-10T18:21:40.767Z,100871.70
2019-02-10T18:24:48.785Z,100871.37
2019-02-10T18:27:37.541Z,100873.47
2019-02-10T18:30:32.346Z,100859.66
2019-02-10T18:33:32.495Z,100862.84
2019-02-10T18:36:25.006Z,100855.75
2019-02-10T18:39:27.264Z,100862.33
2019-02-10T18:42:08.314Z,100858.35
2019-02-10T18:44:55.482Z,100848.28
2019-02-10T18:47:46.185Z,100851.25
2019-02-10T18:50:35.259Z,100846.50
2019-02-10T18:53:24.754Z,100847.70
2019-02-10T18:56:06.519Z,100842.11
2019-02-10T18:58:56.001Z,100834.08
2019-02-10T19:01:38.601Z,100839.04
2019-02-10T19:04:40.808Z,100832.95
2019-02-10T19:07:31.622Z,100831.66
2019-02-10T19:10:20.962Z,100826.28
2019-02-10T19:13:07.568Z,100828.11
2019-02-10T19:15:55.639Z,100829.51
2019-02-10T19:18:41.388Z,100823.80
2019-02-10T19:21:39.990Z,100814.50
2019-02-10T19:24:49.003Z,100811.02
2019-02-10T19:27:27.901Z,100808.80
2019-02-10T19:30:17.107Z,100805.41
2019-02-10T19:33:06.594Z,100801.69
2019-02-10T19:35:55.751Z,100802.28
2019-02-10T19:38:41.446Z,100801.64
2019-02-10T19:41:22.313Z,100793.94
2019-02-10T19:44:10.858Z,100792.34
2019-02-10T19:46:59.099Z,100792.92
2019-02-10T19:49:46.849Z,100788.35
2019-02-10T19:52:35.506Z,100778.62
2019-02-10T19:55:24.070Z,100773.55
2019-02-10T19:58:29.513Z,100781.11
2019-02-10T20:01:17.726Z,100776.75
2019-02-10T20:04:26.862Z,100771.96
2019-02-10T20:07:23.521Z,100774.55
2019-02-10T20:10:04.228Z,100765.56
2019-02-10T20:12:46.502Z,100771.77
2019-02-10T20:15:23.016Z,100766.22
2019-02-10T20:18:12.644Z,100761.44
2019-02-10T20:21:08.577Z,100762.63
2019-02-10T20:24:11.477Z,100763.23
2019-02-10T20:27:06.872Z,100758.72
2019-02-10T20:29:48.479Z,100749.73
2019-02-10T20:32:42.861Z,100752.91
2019-02-10T20:35:41.141Z,100754.91
2019-02-10T20:38:39.618Z,100746.77
2019-02-10T20:41:37.910Z,100747.16
2019-02-10T20:44:28.399Z,100745.59
2019-02-10T20:47:27.114Z,100745.97
2019-02-10T20:50:28.758Z,100740.59
2019-02-10T20:53:18.309Z,100727.73
2019-02-10T20:56:02.055Z,100726.97
2019-02-10T20:58:44.350Z,100718.20
2019-02-10T21:01:30.791Z,100718.70
2019-02-10T21:04:08.660Z,100706.15
2019-02-10T21:06:55.170Z,100708.84
2019-02-10T21:09:54.159Z,100697.22
2019-02-10T21:12:43.264Z,100697.27
2019-02-10T21:15:48.726Z,100688.13
2019-02-10T21:18:37.630Z,100688.13
2019-02-10T21:21:27.529Z,100685.33
2019-02-10T21:24:10.864Z,100681.73
2019-02-10T21:26:59.603Z,100679.78
2019-02-10T21:32:34.149Z,100678.20
2019-02-10T21:35:23.724Z,100677.66
2019-02-10T21:38:19.049Z,100676.75
2019-02-10T21:41:08.510Z,100670.70
2019-02-10T21:44:01.377Z,100675.13
2019-02-10T21:46:59.139Z,100667.72
2019-02-10T21:49:32.214Z,100664.95
2019-02-10T21:52:04.882Z,100655.38
2019-02-10T21:54:35.865Z,100652.70
2019-02-10T21:57:06.422Z,100652.79
2019-02-10T21:59:37.059Z,100658.81
2019-02-10T22:02:07.716Z,100656.58
2019-02-10T22:04:38.842Z,100645.89
2019-02-10T22:07:09.469Z,100642.31
2019-02-10T22:09:41.244Z,100645.40
2019-02-10T22:12:12.432Z,100644.60
2019-02-10T22:14:43.127Z,100642.02
2019-02-10T22:17:13.816Z,100634.14
2019-02-10T22:19:44.659Z,100632.48
2019-02-10T22:22:15.639Z,100624.48
2019-02-10T22:24:46.263Z,100622.31
2019-02-10T22:27:16.868Z,100612.92
2019-02-10T22:29:47.469Z,100616.41
2019-02-10T22:32:19.655Z,100610.80
2019-02-10T22:34:50.524Z,100604.05
2019-02-10T22:37:21.171Z,100597.91
2019-02-10T22:39:51.782Z,100598.14
2019-02-10T22:42:22.618Z,100587.75
2019-02-10T22:44:53.237Z,100583.42
2019-02-10T22:47:23.908Z,100580.65
2019-02-10T22:49:54.560Z,100579.23
2019-02-10T22:52:27.976Z,100568.39
2019-02-10T22:54:58.678Z,100572.97
2019-02-10T22:57:29.629Z,100559.44
2019-02-10T23:00:01.326Z,100560.51
2019-02-10T23:02:32.479Z,100555.64
2019-02-10T23:05:05.543Z,100553.56
2019-02-10T23:07:36.355Z,100547.66
2019-02-10T23:10:07.235Z,100547.81
2019-02-10T23:12:38.039Z,100544.11
2019-02-10T23:15:10.245Z,100540.73
2019-02-10T23:17:40.829Z,100536.22
2019-02-10T23:20:11.750Z,100539.89
2019-02-10T23:22:42.381Z,100532.36
2019-02-10T23:25:12.933Z,100527.31
2019-02-10T23:27:43.480Z,100527.00
2019-02-10T23:30:14.440Z,100520.88
2019-02-10T23:32:45.108Z,100523.05
2019-02-10T23:35:15.916Z,100518.95
2019-02-10T23:37:46.875Z,100515.35
2019-02-10T23:40:17.606Z,100513.94
2019-02-10T23:42:48.249Z,100512.42
2019-02-10T23:45:18.807Z,100515.06
2019-02-10T23:47:49.555Z,100517.22
2019-02-10T23:50:20.878Z,100514.69
2019-02-10T23:52:51.706Z,100517.31
2019-02-10T23:55:22.268Z,100517.79
2019-02-10T23:57:52.920Z,100514.92
